createdAt,value
2023-04-22T00:00:30.449Z,1.70
2023-04-22T00:10:33.798Z,1.70
2023-04-22T00:20:39.316Z,1.60
2023-04-22T00:30:42.786Z,1.50
2023-04-22T00:40:47.528Z,1.30
2023-04-22T00:50:50.942Z,1.40
2023-04-22T01:00:55.732Z,1.30
2023-04-22T01:10:59.462Z,1.10
2023-04-22T01:21:04.518Z,1.00
2023-04-22T01:31:10.071Z,0.90
2023-04-22T01:41:14.750Z,0.70
2023-04-22T01:51:21.867Z,0.60
2023-04-22T02:01:25.332Z,0.50
2023-04-22T02:11:30.116Z,0.40
2023-04-22T02:21:33.606Z,0.30
2023-04-22T02:31:38.448Z,0.30
2023-04-22T02:41:41.936Z,0.20
2023-04-22T02:51:46.913Z,0.20
2023-04-22T03:01:50.478Z,0.20
2023-04-22T03:12:10.032Z,0.00
2023-04-22T03:22:13.645Z,-0.10
2023-04-22T03:32:19.076Z,-0.20
2023-04-22T03:42:25.942Z,-0.20
2023-04-22T03:52:30.764Z,-0.20
2023-04-22T04:02:38.893Z,-0.10
2023-04-22T04:12:44.421Z,0.10
2023-04-22T04:22:48.174Z,0.30
2023-04-22T04:32:53.522Z,0.50
2023-04-22T04:42:58.039Z,0.80
2023-04-22T04:53:10.164Z,1.20
2023-04-22T05:03:17.505Z,1.70
2023-04-22T05:13:23.654Z,2.30
2023-04-22T05:23:28.054Z,2.90
2023-04-22T05:33:35.114Z,3.50
2023-04-22T05:43:38.725Z,4.20
2023-04-22T05:53:52.421Z,4.90
2023-04-22T06:03:57.393Z,5.80
2023-04-22T06:14:03.420Z,6.90
2023-04-22T06:24:09.305Z,9.30
2023-04-22T06:34:14.450Z,11.50
2023-04-22T06:44:18.303Z,13.60
2023-04-22T06:54:51.232Z,15.60
2023-04-22T07:04:55.051Z,18.00
2023-04-22T07:15:00.108Z,20.50
2023-04-22T07:25:03.605Z,23.20
2023-04-22T07:35:09.749Z,25.60
2023-04-22T07:45:13.488Z,28.10
2023-04-22T07:55:18.553Z,30.40
2023-04-22T08:05:22.044Z,31.70
2023-04-22T08:15:27.038Z,33.00
2023-04-22T08:25:31.530Z,34.60
2023-04-22T08:35:37.966Z,36.20
2023-04-22T08:45:42.353Z,36.80
2023-04-22T08:55:49.871Z,38.20
2023-04-22T09:05:54.537Z,39.40
2023-04-22T09:16:00.095Z,39.30
2023-04-22T09:26:03.713Z,40.60
2023-04-22T09:36:11.783Z,41.60
2023-04-22T09:46:15.430Z,43.00
2023-04-22T09:56:20.388Z,45.00
2023-04-22T10:06:23.799Z,45.80
2023-04-22T10:16:32.204Z,47.40
2023-04-22T10:26:44.412Z,48.50
2023-04-22T10:37:02.046Z,46.60
2023-04-22T10:47:05.609Z,48.00
2023-04-22T10:57:12.489Z,49.20
2023-04-22T11:07:17.168Z,50.80
2023-04-22T11:17:22.742Z,48.80
2023-04-22T11:27:27.232Z,49.50
2023-04-22T11:37:32.388Z,52.90
2023-04-22T11:47:37.048Z,54.50
2023-04-22T11:57:42.356Z,54.10
2023-04-22T12:07:45.695Z,53.30
2023-04-22T12:17:52.360Z,50.70
2023-04-22T12:27:56.178Z,52.30
2023-04-22T12:38:00.884Z,53.40
2023-04-22T12:48:04.611Z,52.30
2023-04-22T12:58:09.478Z,53.00
2023-04-22T13:08:12.975Z,48.30
2023-04-22T13:18:18.135Z,37.70
2023-04-22T13:28:21.749Z,31.00
2023-04-22T13:38:26.601Z,26.30
2023-04-22T13:48:30.168Z,24.70
2023-04-22T13:58:35.278Z,23.80
2023-04-22T14:08:39.098Z,23.10
2023-04-22T14:18:45.663Z,22.50
2023-04-22T14:28:49.054Z,21.50
2023-04-22T14:38:53.877Z,21.50
2023-04-22T14:48:57.303Z,21.20
2023-04-22T14:59:02.099Z,20.90
2023-04-22T15:09:05.669Z,20.40
2023-04-22T15:19:10.605Z,20.00
2023-04-22T15:29:14.264Z,19.30
2023-04-22T15:39:20.190Z,19.30
2023-04-22T15:49:23.660Z,19.00
2023-04-22T15:59:28.716Z,18.50
2023-04-22T16:09:32.059Z,18.10
2023-04-22T16:19:37.112Z,17.70
2023-04-22T16:29:41.333Z,17.30
2023-04-22T16:39:46.385Z,16.90
2023-04-22T16:49:49.907Z,16.50
2023-04-22T16:59:54.715Z,16.10
2023-04-22T17:09:58.096Z,15.70
2023-04-22T17:20:03.062Z,15.20
2023-04-22T17:30:08.156Z,14.70
2023-04-22T17:40:13.360Z,14.20
2023-04-22T17:50:16.795Z,13.60
2023-04-22T18:00:22.135Z,13.00
2023-04-22T18:10:25.716Z,12.50
2023-04-22T18:20:30.463Z,11.90
2023-04-22T18:30:33.961Z,11.50
2023-04-22T18:40:38.736Z,11.10
2023-04-22T18:50:42.171Z,10.60
2023-04-22T19:00:46.944Z,10.20
2023-04-22T19:10:50.630Z,9.70
2023-04-22T19:20:55.531Z,9.30
2023-04-22T19:31:00.173Z,9.00
2023-04-22T19:41:05.097Z,8.60
2023-04-22T19:51:10.138Z,8.40
2023-04-22T20:01:15.462Z,8.20
2023-04-22T20:11:19.358Z,8.00
2023-04-22T20:21:24.313Z,7.70
2023-04-22T20:31:28.136Z,7.60
2023-04-22T20:41:38.732Z,7.30
2023-04-22T20:51:42.872Z,7.00
2023-04-22T21:01:48.508Z,6.80
2023-04-22T21:11:52.782Z,6.50
2023-04-22T21:21:59.483Z,6.30
2023-04-22T21:32:09.213Z,6.20
2023-04-22T21:42:14.909Z,6.00
2023-04-22T21:52:18.265Z,5.70
2023-04-22T22:02:23.324Z,5.60
2023-04-22T22:12:26.934Z,5.30
2023-04-22T22:22:32.408Z,5.00
2023-04-22T22:32:37.540Z,4.70
2023-04-22T22:42:42.242Z,4.40
2023-04-22T22:52:45.665Z,4.20
2023-04-22T23:02:50.605Z,4.10
2023-04-22T23:12:54.130Z,3.90
2023-04-22T23:23:02.444Z,3.80
2023-04-22T23:33:07.403Z,3.70
2023-04-22T23:43:12.330Z,3.60
2023-04-22T23:53:15.733Z,3.40
